Sharon, Nebraska
Current Conditions -  °F | °C
As of 6:55 PM on Friday 24 Oct 2014 (Local Time) from KEAR Reporting Station
Clear Clear  
Wind Chill: 64°   Ceiling: Unl
Heat Index: 64°   Visibility: 10mi
Dew Point: 46°   Wind: 6mph
Humidity: 52%   Direction: 50°NE
Pressure: 29.99"   Gusts: NA
Location:  40.748°N, 98.7791°W
Report Text: KEAR 242355Z 05005KT 10SM CLR 18/08 A2999 RMK AO1 10290 20180 402900110 52014
Loading
Personal Weather Stations






























Interactive Weather Map
Tropical Storm Tracking
New forecast layout! Learn more

10-Day Weather Forecast

Advertisements
Track Severe Weather on mobile